createdAt,value
2018-12-08T00:00:26.990Z,993.72
2018-12-08T00:01:27.010Z,993.79
2018-12-08T00:02:26.923Z,993.78
2018-12-08T00:03:26.897Z,993.78
2018-12-08T00:04:26.859Z,993.89
2018-12-08T00:05:26.828Z,993.87
2018-12-08T00:06:26.798Z,993.92
2018-12-08T00:07:26.773Z,994.10
2018-12-08T00:08:26.743Z,994.09
2018-12-08T00:09:26.710Z,994.07
2018-12-08T00:10:26.687Z,994.11
2018-12-08T00:11:26.875Z,994.03
2018-12-08T00:12:26.845Z,994.09
2018-12-08T00:13:26.590Z,994.11
2018-12-08T00:14:26.542Z,994.28
2018-12-08T00:15:26.505Z,994.16
2018-12-08T00:16:26.487Z,994.24
2018-12-08T00:17:26.447Z,994.35
2018-12-08T00:18:26.390Z,994.48
2018-12-08T00:19:26.467Z,994.29
2018-12-08T00:20:26.380Z,994.34
2018-12-08T00:21:26.284Z,994.44
2018-12-08T00:22:26.336Z,994.50
2018-12-08T00:23:26.226Z,994.51
2018-12-08T00:24:26.168Z,994.59
2018-12-08T00:25:26.453Z,994.63
2018-12-08T00:26:26.095Z,994.74
2018-12-08T00:27:26.078Z,994.77
2018-12-08T00:28:26.103Z,994.79
2018-12-08T00:29:26.039Z,994.82
2018-12-08T00:30:26.008Z,994.77
2018-12-08T00:31:25.961Z,994.83
2018-12-08T00:32:25.915Z,994.85
2018-12-08T00:33:25.913Z,994.86
2018-12-08T00:34:25.886Z,994.89
2018-12-08T00:35:25.812Z,994.99
2018-12-08T00:36:25.765Z,995.03
2018-12-08T00:37:25.722Z,994.98
2018-12-08T00:38:25.680Z,994.93
2018-12-08T00:39:25.740Z,995.01
2018-12-08T00:40:25.653Z,995.01
2018-12-08T00:41:25.596Z,995.15
2018-12-08T00:42:25.578Z,995.13
2018-12-08T00:43:25.572Z,995.17
2018-12-08T00:44:25.622Z,995.22
2018-12-08T00:45:25.491Z,995.31
2018-12-08T00:46:25.459Z,995.34
2018-12-08T00:47:25.424Z,995.46
2018-12-08T00:48:25.385Z,995.40
2018-12-08T00:49:25.368Z,995.67
2018-12-08T00:50:25.311Z,995.46
2018-12-08T00:51:25.292Z,995.61
2018-12-08T00:52:25.238Z,995.74
2018-12-08T00:53:25.204Z,995.68
2018-12-08T00:54:25.182Z,995.70
2018-12-08T00:55:25.134Z,995.83
2018-12-08T00:56:25.125Z,995.91
2018-12-08T00:57:25.097Z,995.79
2018-12-08T00:58:25.064Z,995.84
2018-12-08T00:59:25.142Z,995.88
2018-12-08T01:00:24.997Z,996.04
2018-12-08T01:01:24.968Z,995.97
2018-12-08T01:02:24.945Z,996.04
2018-12-08T01:03:24.877Z,995.99
2018-12-08T01:04:24.858Z,996.11
2018-12-08T01:05:24.890Z,996.11
2018-12-08T01:06:24.786Z,996.07
2018-12-08T01:07:24.754Z,996.23
2018-12-08T01:08:24.727Z,996.32
2018-12-08T01:09:24.727Z,996.10
2018-12-08T01:10:24.667Z,996.25
2018-12-08T01:11:24.637Z,996.35
2018-12-08T01:12:24.605Z,996.22
2018-12-08T01:13:24.579Z,996.27
2018-12-08T01:14:24.557Z,996.38
2018-12-08T01:15:24.532Z,996.45
2018-12-08T01:16:24.486Z,996.41
2018-12-08T01:17:24.452Z,996.49
2018-12-08T01:18:24.427Z,996.44
2018-12-08T01:19:24.395Z,996.48
2018-12-08T01:20:24.487Z,996.55
2018-12-08T01:21:24.357Z,996.47
2018-12-08T01:22:24.340Z,996.55
2018-12-08T01:23:24.303Z,996.60
2018-12-08T01:24:24.278Z,996.65
2018-12-08T01:25:24.276Z,996.59
2018-12-08T01:26:24.207Z,996.66
2018-12-08T01:27:24.177Z,996.65
2018-12-08T01:28:24.157Z,996.63
2018-12-08T01:29:24.129Z,996.78
2018-12-08T01:30:24.125Z,996.64
2018-12-08T01:31:24.083Z,996.67
2018-12-08T01:32:24.073Z,996.65
2018-12-08T01:33:24.045Z,996.66
2018-12-08T01:34:24.018Z,996.63
2018-12-08T01:35:24.015Z,996.60
2018-12-08T01:36:23.980Z,996.70
2018-12-08T01:37:23.972Z,996.69
2018-12-08T01:38:23.946Z,996.72
2018-12-08T01:39:23.919Z,996.75
2018-12-08T01:40:23.905Z,996.77
2018-12-08T01:41:23.863Z,996.78
2018-12-08T01:42:23.835Z,996.73
2018-12-08T01:43:23.805Z,996.87
2018-12-08T01:44:23.781Z,996.77
2018-12-08T01:45:23.770Z,996.83
2018-12-08T01:46:23.772Z,996.78
2018-12-08T01:47:23.705Z,996.75
2018-12-08T01:48:23.678Z,996.76
2018-12-08T01:49:23.649Z,996.71
2018-12-08T01:50:23.670Z,996.70
2018-12-08T01:51:23.627Z,996.76
2018-12-08T01:52:23.602Z,996.74
2018-12-08T01:53:23.582Z,996.82
2018-12-08T01:54:23.564Z,996.72
2018-12-08T01:55:23.543Z,996.81
2018-12-08T01:56:23.549Z,996.81
2018-12-08T01:57:23.510Z,996.82
2018-12-08T01:58:23.492Z,996.83
2018-12-08T01:59:23.469Z,996.89
2018-12-08T02:00:23.452Z,996.84
2018-12-08T02:01:23.437Z,996.89
2018-12-08T02:02:23.402Z,996.98
2018-12-08T02:03:23.382Z,997.05
2018-12-08T02:04:23.362Z,997.06
2018-12-08T02:05:23.356Z,997.14
2018-12-08T02:06:23.337Z,997.14
2018-12-08T02:07:23.302Z,997.12
2018-12-08T02:08:23.288Z,997.11
2018-12-08T02:09:23.260Z,997.11
2018-12-08T02:10:23.247Z,997.12
2018-12-08T02:11:25.076Z,997.15
2018-12-08T02:12:23.204Z,997.21
2018-12-08T02:13:23.188Z,997.24
2018-12-08T02:14:23.172Z,997.30
2018-12-08T02:15:23.159Z,997.28
2018-12-08T02:16:23.142Z,997.24
2018-12-08T02:17:23.094Z,997.27
2018-12-08T02:18:23.069Z,997.30
2018-12-08T02:19:23.049Z,997.30
2018-12-08T02:20:23.024Z,997.32
2018-12-08T02:21:23.016Z,997.29
2018-12-08T02:22:22.979Z,997.32
2018-12-08T02:23:22.951Z,997.28
2018-12-08T02:24:22.928Z,997.26
2018-12-08T02:25:22.910Z,997.32
2018-12-08T02:26:22.900Z,997.31
2018-12-08T02:27:22.855Z,997.32
2018-12-08T02:28:22.837Z,997.36
2018-12-08T02:29:22.813Z,997.31
2018-12-08T02:30:22.795Z,997.32
2018-12-08T02:31:22.820Z,997.36
2018-12-08T02:32:22.765Z,997.31
2018-12-08T02:33:22.741Z,997.30
2018-12-08T02:34:22.718Z,997.31
2018-12-08T02:35:22.694Z,997.42
2018-12-08T02:36:22.671Z,997.33
2018-12-08T02:37:22.663Z,997.20
2018-12-08T02:38:22.621Z,997.26
2018-12-08T02:39:22.598Z,997.25
2018-12-08T02:40:22.567Z,997.30
2018-12-08T02:41:22.538Z,997.33
2018-12-08T02:42:22.533Z,997.35
2018-12-08T02:43:22.481Z,997.30
2018-12-08T02:44:22.446Z,997.37
2018-12-08T02:45:22.419Z,997.35
2018-12-08T02:46:22.391Z,997.42
2018-12-08T02:47:22.373Z,997.37
2018-12-08T02:48:22.329Z,997.24
2018-12-08T02:49:22.308Z,997.31
2018-12-08T02:50:22.280Z,997.29
2018-12-08T02:51:22.254Z,997.33
2018-12-08T02:52:22.243Z,997.35
2018-12-08T02:53:22.203Z,997.32
2018-12-08T02:54:22.169Z,997.36
2018-12-08T02:55:22.150Z,997.41
2018-12-08T02:56:22.115Z,997.40
2018-12-08T02:57:22.104Z,997.48
2018-12-08T02:58:22.068Z,997.46
2018-12-08T02:59:22.048Z,997.47
2018-12-08T03:00:22.035Z,997.50
2018-12-08T03:01:22.002Z,997.63
2018-12-08T03:02:22.007Z,997.62
2018-12-08T03:03:21.946Z,997.66
2018-12-08T03:04:21.927Z,997.67
2018-12-08T03:05:21.920Z,997.55
2018-12-08T03:06:21.889Z,997.53
2018-12-08T03:07:21.877Z,997.50
2018-12-08T03:08:21.868Z,997.57
2018-12-08T03:09:21.817Z,997.53
2018-12-08T03:10:21.798Z,997.61
2018-12-08T03:11:21.768Z,997.60
2018-12-08T03:12:21.749Z,997.66
2018-12-08T03:13:21.748Z,997.61
2018-12-08T03:14:21.715Z,997.65
2018-12-08T03:15:21.694Z,997.69
2018-12-08T03:16:21.667Z,997.83
2018-12-08T03:17:21.639Z,997.87
2018-12-08T03:18:21.634Z,997.87
2018-12-08T03:19:21.591Z,997.89
2018-12-08T03:20:21.595Z,997.86
2018-12-08T03:21:21.553Z,997.86
2018-12-08T03:22:21.527Z,997.84
2018-12-08T03:23:21.536Z,997.86
2018-12-08T03:24:21.503Z,997.94
2018-12-08T03:25:21.493Z,998.01
2018-12-08T03:26:21.473Z,997.98
2018-12-08T03:27:21.441Z,998.00
2018-12-08T03:28:21.441Z,998.09
2018-12-08T03:29:21.392Z,998.16
2018-12-08T03:30:21.360Z,998.15
2018-12-08T03:31:21.329Z,998.13
2018-12-08T03:32:21.322Z,998.15
2018-12-08T03:33:21.288Z,998.13
2018-12-08T03:34:21.236Z,998.12
2018-12-08T03:35:21.208Z,998.16
2018-12-08T03:36:21.183Z,998.16
2018-12-08T03:37:21.157Z,998.23
2018-12-08T03:38:21.130Z,998.26
2018-12-08T03:39:21.087Z,998.32
2018-12-08T03:40:21.050Z,998.31
2018-12-08T03:41:21.011Z,998.31
2018-12-08T03:42:21.078Z,998.25
2018-12-08T03:43:20.961Z,998.34
2018-12-08T03:44:20.907Z,998.29
2018-12-08T03:45:20.877Z,998.30
2018-12-08T03:46:20.839Z,998.31
2018-12-08T03:47:20.807Z,998.37
2018-12-08T03:48:20.790Z,998.38
2018-12-08T03:49:20.747Z,998.40
2018-12-08T03:50:20.717Z,998.46
2018-12-08T03:51:20.694Z,998.47
2018-12-08T03:52:20.659Z,998.56
2018-12-08T03:53:20.645Z,998.50
2018-12-08T03:54:20.607Z,998.48
2018-12-08T03:55:20.578Z,998.47
2018-12-08T03:56:20.573Z,998.46
2018-12-08T03:57:20.526Z,998.51
2018-12-08T03:58:20.519Z,998.48
2018-12-08T03:59:20.485Z,998.48
2018-12-08T04:00:20.468Z,998.50
2018-12-08T04:01:20.433Z,998.52
2018-12-08T04:02:20.411Z,998.49
2018-12-08T04:03:20.424Z,998.49
2018-12-08T04:04:20.371Z,998.47
2018-12-08T04:05:20.350Z,998.52
2018-12-08T04:06:20.330Z,998.46
2018-12-08T04:07:20.309Z,998.47
2018-12-08T04:08:20.290Z,998.42
2018-12-08T04:09:20.287Z,998.48
2018-12-08T04:10:20.247Z,998.48
2018-12-08T04:11:20.227Z,998.48
2018-12-08T04:12:20.199Z,998.44
2018-12-08T04:13:20.187Z,998.41
2018-12-08T04:14:20.182Z,998.45
2018-12-08T04:15:20.150Z,998.46
2018-12-08T04:16:20.124Z,998.47
2018-12-08T04:17:20.093Z,998.49
2018-12-08T04:18:20.071Z,998.41
2018-12-08T04:19:20.061Z,998.46
2018-12-08T04:20:27.060Z,998.52
2018-12-08T04:21:19.997Z,998.58
2018-12-08T04:22:19.971Z,998.57
2018-12-08T04:23:19.949Z,998.65
2018-12-08T04:24:19.940Z,998.64
2018-12-08T04:25:19.896Z,998.57
2018-12-08T04:26:19.877Z,998.57
2018-12-08T04:27:19.860Z,998.63
2018-12-08T04:28:19.833Z,998.68
2018-12-08T04:29:19.823Z,998.72
2018-12-08T04:30:19.792Z,998.75
2018-12-08T04:31:19.764Z,998.78
2018-12-08T04:32:19.758Z,998.80
2018-12-08T04:33:19.725Z,998.77
2018-12-08T04:34:19.717Z,998.78
2018-12-08T04:35:19.693Z,998.82
2018-12-08T04:36:19.661Z,998.78
2018-12-08T04:37:19.640Z,998.83
2018-12-08T04:38:19.618Z,998.80
2018-12-08T04:39:19.610Z,998.90
2018-12-08T04:40:19.574Z,998.86
2018-12-08T04:41:19.556Z,998.87
2018-12-08T04:42:19.539Z,998.87
2018-12-08T04:43:19.521Z,998.87
2018-12-08T04:44:19.512Z,998.91
2018-12-08T04:45:19.471Z,998.91
2018-12-08T04:46:19.448Z,998.87
2018-12-08T04:47:19.434Z,998.88
2018-12-08T04:48:19.387Z,998.86
2018-12-08T04:49:19.370Z,998.98
2018-12-08T04:50:19.347Z,998.89
2018-12-08T04:51:19.314Z,998.96
2018-12-08T04:52:19.302Z,998.96
2018-12-08T04:53:19.284Z,999.05
2018-12-08T04:54:19.272Z,998.97
2018-12-08T04:55:19.242Z,999.10
2018-12-08T04:56:19.224Z,999.15
2018-12-08T04:57:19.204Z,999.15
2018-12-08T04:58:19.180Z,999.21
2018-12-08T04:59:19.165Z,999.26
2018-12-08T05:00:19.130Z,999.29
2018-12-08T05:01:19.113Z,999.32
2018-12-08T05:02:19.095Z,999.34
2018-12-08T05:03:19.090Z,999.38
2018-12-08T05:04:19.118Z,999.38
2018-12-08T05:05:19.081Z,999.39
2018-12-08T05:06:19.054Z,999.44
2018-12-08T05:07:19.034Z,999.48
2018-12-08T05:08:19.019Z,999.41
2018-12-08T05:09:18.988Z,999.49
2018-12-08T05:10:18.995Z,999.50
2018-12-08T05:11:18.956Z,999.53
2018-12-08T05:12:18.936Z,999.51
2018-12-08T05:13:18.916Z,999.57
2018-12-08T05:14:18.896Z,999.68
2018-12-08T05:15:18.892Z,999.64
2018-12-08T05:16:18.857Z,999.68
2018-12-08T05:17:18.838Z,999.72
2018-12-08T05:18:18.826Z,999.67
2018-12-08T05:19:18.804Z,999.63
2018-12-08T05:20:18.795Z,999.68
2018-12-08T05:21:18.756Z,999.62
2018-12-08T05:22:18.731Z,999.65
2018-12-08T05:23:18.704Z,999.63
2018-12-08T05:24:18.676Z,999.69
2018-12-08T05:25:18.664Z,999.59
2018-12-08T05:26:18.624Z,999.63
2018-12-08T05:27:18.601Z,999.72
2018-12-08T05:28:18.578Z,999.66
2018-12-08T05:29:18.549Z,999.64
2018-12-08T05:30:18.546Z,999.60
2018-12-08T05:31:18.502Z,999.55
2018-12-08T05:32:18.472Z,999.58
2018-12-08T05:33:18.445Z,999.58
2018-12-08T05:34:18.437Z,999.57
2018-12-08T05:35:18.415Z,999.54
2018-12-08T05:36:18.367Z,999.51
2018-12-08T05:37:18.361Z,999.61
2018-12-08T05:38:18.315Z,999.64
2018-12-08T05:39:18.281Z,999.68
2018-12-08T05:40:18.265Z,999.65
2018-12-08T05:41:18.238Z,999.61
2018-12-08T05:42:18.206Z,999.71
2018-12-08T05:43:18.193Z,999.69
2018-12-08T05:44:18.169Z,999.70
2018-12-08T05:45:18.159Z,999.72
2018-12-08T05:46:18.115Z,999.71
2018-12-08T05:47:18.088Z,999.70
2018-12-08T05:48:18.058Z,999.68
2018-12-08T05:49:18.027Z,999.74
2018-12-08T05:50:18.023Z,999.72
2018-12-08T05:51:17.971Z,999.71
2018-12-08T05:52:17.945Z,999.77
2018-12-08T05:53:17.926Z,999.73
2018-12-08T05:54:17.913Z,999.76
2018-12-08T05:55:17.880Z,999.80
2018-12-08T05:56:17.828Z,999.81
2018-12-08T05:57:17.799Z,999.84
2018-12-08T05:58:17.769Z,999.76
2018-12-08T05:59:17.740Z,999.76
2018-12-08T06:00:17.733Z,999.73
2018-12-08T06:01:17.793Z,999.73
2018-12-08T06:02:17.696Z,999.71
2018-12-08T06:03:17.677Z,999.77
2018-12-08T06:04:17.652Z,999.69
2018-12-08T06:05:17.657Z,999.75
2018-12-08T06:06:17.603Z,999.70
2018-12-08T06:07:17.593Z,999.74
2018-12-08T06:08:17.556Z,999.72
2018-12-08T06:09:17.523Z,999.73
2018-12-08T06:10:17.497Z,999.71
2018-12-08T06:11:17.482Z,999.71
2018-12-08T06:12:17.443Z,999.75
2018-12-08T06:13:17.419Z,999.72
2018-12-08T06:14:17.398Z,999.70
2018-12-08T06:15:17.373Z,999.71
2018-12-08T06:16:17.368Z,999.66
2018-12-08T06:17:17.339Z,999.69
2018-12-08T06:18:17.322Z,999.68
2018-12-08T06:19:17.300Z,999.65
2018-12-08T06:20:17.310Z,999.65
2018-12-08T06:21:17.279Z,999.59
2018-12-08T06:22:17.244Z,999.62
2018-12-08T06:23:17.227Z,999.62
2018-12-08T06:24:17.207Z,999.66
2018-12-08T06:25:17.207Z,999.67
2018-12-08T06:26:17.157Z,999.69
2018-12-08T06:27:17.129Z,999.65
2018-12-08T06:28:17.103Z,999.64
2018-12-08T06:29:17.079Z,999.66
2018-12-08T06:30:17.057Z,999.73
2018-12-08T06:31:17.046Z,999.64
2018-12-08T06:32:17.005Z,999.58
2018-12-08T06:33:16.971Z,999.62
2018-12-08T06:34:16.941Z,999.60
2018-12-08T06:35:16.915Z,999.57
2018-12-08T06:36:16.897Z,999.54
2018-12-08T06:37:16.862Z,999.52
2018-12-08T06:38:16.855Z,999.55
2018-12-08T06:39:16.835Z,999.52
2018-12-08T06:40:16.834Z,999.54
2018-12-08T06:41:16.803Z,999.52
2018-12-08T06:42:16.764Z,999.52
2018-12-08T06:43:16.725Z,999.57
2018-12-08T06:44:16.697Z,999.56
2018-12-08T06:45:16.664Z,999.59
2018-12-08T06:46:16.643Z,999.60
2018-12-08T06:47:16.606Z,999.62
2018-12-08T06:48:16.701Z,999.57
2018-12-08T06:49:16.528Z,999.65
2018-12-08T06:50:16.498Z,999.63
2018-12-08T06:51:16.478Z,999.61
2018-12-08T06:52:16.449Z,999.64
2018-12-08T06:53:16.406Z,999.66
2018-12-08T06:54:16.376Z,999.67
2018-12-08T06:55:16.350Z,999.66
2018-12-08T06:56:16.324Z,999.64
2018-12-08T06:57:16.273Z,999.68
2018-12-08T06:58:16.252Z,999.60
2018-12-08T06:59:16.211Z,999.63
2018-12-08T07:00:16.190Z,999.60
2018-12-08T07:01:16.174Z,999.60
2018-12-08T07:02:16.133Z,999.66
2018-12-08T07:03:16.106Z,999.64
2018-12-08T07:04:16.082Z,999.62
2018-12-08T07:05:16.044Z,999.73
2018-12-08T07:06:16.023Z,999.72
2018-12-08T07:07:15.982Z,999.71
2018-12-08T07:08:15.964Z,999.77
2018-12-08T07:09:15.938Z,999.73
2018-12-08T07:10:15.908Z,999.76
2018-12-08T07:11:15.914Z,999.75
2018-12-08T07:12:15.859Z,999.69
2018-12-08T07:13:15.828Z,999.70
2018-12-08T07:14:15.806Z,999.75
2018-12-08T07:15:15.789Z,999.73
2018-12-08T07:16:15.785Z,999.78
2018-12-08T07:17:15.724Z,999.77
2018-12-08T07:18:15.699Z,999.79
2018-12-08T07:19:15.669Z,999.75
2018-12-08T07:20:15.645Z,999.74
2018-12-08T07:21:15.655Z,999.76
2018-12-08T07:22:15.596Z,999.72
2018-12-08T07:23:15.578Z,999.73
2018-12-08T07:24:15.546Z,999.73
2018-12-08T07:25:15.516Z,999.70
2018-12-08T07:26:15.472Z,999.67
2018-12-08T07:27:15.472Z,999.64
2018-12-08T07:28:15.398Z,999.67
2018-12-08T07:29:15.376Z,999.63
2018-12-08T07:30:15.328Z,999.61
2018-12-08T07:31:15.295Z,999.65
2018-12-08T07:32:15.279Z,999.63
2018-12-08T07:33:15.248Z,999.62
2018-12-08T07:34:15.198Z,999.63
2018-12-08T07:35:15.158Z,999.64
2018-12-08T07:36:15.131Z,999.57
2018-12-08T07:37:15.119Z,999.52
2018-12-08T07:38:15.069Z,999.64
2018-12-08T07:39:15.037Z,999.58
2018-12-08T07:40:15.002Z,999.56
2018-12-08T07:41:14.980Z,999.56
2018-12-08T07:42:14.963Z,999.55
2018-12-08T07:43:14.913Z,999.52
2018-12-08T07:44:14.882Z,999.54
2018-12-08T07:45:15.226Z,999.49
2018-12-08T07:46:14.822Z,999.51
2018-12-08T07:47:14.800Z,999.53
2018-12-08T07:48:14.762Z,999.57
2018-12-08T07:49:14.728Z,999.54
2018-12-08T07:50:14.692Z,999.58
2018-12-08T07:51:14.664Z,999.56
2018-12-08T07:52:14.656Z,999.56
2018-12-08T07:53:14.601Z,999.57
2018-12-08T07:54:14.572Z,999.48
2018-12-08T07:55:14.547Z,999.56
2018-12-08T07:56:14.518Z,999.55
2018-12-08T07:57:14.509Z,999.57
2018-12-08T07:58:14.497Z,999.52
2018-12-08T07:59:14.442Z,999.50
2018-12-08T08:00:14.415Z,999.49
2018-12-08T08:01:14.392Z,999.53
2018-12-08T08:02:14.417Z,999.52
2018-12-08T08:03:14.345Z,999.47
2018-12-08T08:04:14.314Z,999.46
2018-12-08T08:05:14.299Z,999.45
2018-12-08T08:06:14.277Z,999.45
2018-12-08T08:07:14.225Z,999.45
2018-12-08T08:08:14.212Z,999.48
2018-12-08T08:09:14.172Z,999.45
2018-12-08T08:10:14.145Z,999.36
2018-12-08T08:11:14.111Z,999.44
2018-12-08T08:12:14.077Z,999.38
2018-12-08T08:13:14.061Z,999.39
2018-12-08T08:14:14.001Z,999.36
2018-12-08T08:15:13.976Z,999.29
2018-12-08T08:16:13.943Z,999.29
2018-12-08T08:17:13.942Z,999.30
2018-12-08T08:18:13.889Z,999.31
2018-12-08T08:19:13.839Z,999.32
2018-12-08T08:20:13.812Z,999.30
2018-12-08T08:21:13.783Z,999.32
2018-12-08T08:22:13.767Z,999.29
2018-12-08T08:23:13.750Z,999.33
2018-12-08T08:24:13.707Z,999.28
2018-12-08T08:25:13.680Z,999.30
2018-12-08T08:26:13.693Z,999.27
2018-12-08T08:27:13.620Z,999.17
2018-12-08T08:28:13.607Z,999.28
2018-12-08T08:29:13.574Z,999.28
2018-12-08T08:30:13.535Z,999.28
2018-12-08T08:31:13.496Z,999.22
2018-12-08T08:32:13.466Z,999.29
2018-12-08T08:33:13.445Z,999.27
2018-12-08T08:34:13.407Z,999.32
2018-12-08T08:35:13.365Z,999.31
2018-12-08T08:36:13.376Z,999.25
2018-12-08T08:37:13.338Z,999.24
2018-12-08T08:38:13.351Z,999.28
2018-12-08T08:39:13.313Z,999.20
2018-12-08T08:40:13.270Z,999.27
2018-12-08T08:41:13.246Z,999.29
2018-12-08T08:42:13.209Z,999.22
2018-12-08T08:43:13.197Z,999.15
2018-12-08T08:44:13.154Z,999.21
2018-12-08T08:45:13.126Z,999.19
2018-12-08T08:46:13.097Z,999.16
2018-12-08T08:47:13.065Z,999.17
2018-12-08T08:48:13.056Z,999.23
2018-12-08T08:49:13.025Z,999.20
2018-12-08T08:50:12.979Z,999.20
2018-12-08T08:51:12.949Z,999.19
2018-12-08T08:52:12.915Z,999.15
2018-12-08T08:53:12.911Z,999.17
2018-12-08T08:54:12.864Z,999.10
2018-12-08T08:55:12.847Z,999.11
2018-12-08T08:56:12.898Z,999.14
2018-12-08T08:57:12.884Z,999.09
2018-12-08T08:58:12.845Z,999.11
2018-12-08T08:59:12.809Z,999.02
2018-12-08T09:00:12.761Z,999.03
2018-12-08T09:01:12.727Z,999.04
2018-12-08T09:02:12.712Z,999.09
2018-12-08T09:03:12.662Z,998.98
2018-12-08T09:04:12.657Z,999.00
2018-12-08T09:05:12.597Z,999.00
2018-12-08T09:06:12.564Z,998.95
2018-12-08T09:07:12.533Z,998.97
2018-12-08T09:08:12.496Z,998.89
2018-12-08T09:09:12.469Z,998.93
2018-12-08T09:10:12.425Z,998.92
2018-12-08T09:11:12.396Z,998.92
2018-12-08T09:12:12.356Z,998.95
2018-12-08T09:13:12.333Z,998.95
2018-12-08T09:14:13.287Z,998.99
2018-12-08T09:15:12.283Z,998.91
2018-12-08T09:16:12.252Z,998.88
2018-12-08T09:17:12.220Z,998.86
2018-12-08T09:18:12.206Z,998.90
2018-12-08T09:19:12.167Z,998.89
2018-12-08T09:20:12.127Z,998.84
2018-12-08T09:21:12.084Z,998.88
2018-12-08T09:22:12.063Z,998.92
2018-12-08T09:23:12.016Z,998.95
2018-12-08T09:24:11.998Z,998.93
2018-12-08T09:25:11.973Z,998.85
2018-12-08T09:26:11.946Z,998.84
2018-12-08T09:27:11.906Z,998.88
2018-12-08T09:28:11.872Z,998.79
2018-12-08T09:29:11.852Z,998.84
2018-12-08T09:30:11.792Z,998.81
2018-12-08T09:31:11.763Z,998.84
2018-12-08T09:32:11.725Z,998.75
2018-12-08T09:33:11.684Z,998.75
2018-12-08T09:34:11.675Z,998.79
2018-12-08T09:35:11.631Z,998.83
2018-12-08T09:36:11.608Z,998.79
2018-12-08T09:37:11.791Z,998.85
2018-12-08T09:38:11.533Z,998.80
2018-12-08T09:39:11.546Z,998.79
2018-12-08T09:40:11.527Z,998.76
2018-12-08T09:41:11.428Z,998.73
2018-12-08T09:42:11.386Z,998.71
2018-12-08T09:43:11.352Z,998.80
2018-12-08T09:44:11.336Z,998.76
2018-12-08T09:45:11.299Z,998.70
2018-12-08T09:46:11.255Z,998.66
2018-12-08T09:47:11.228Z,998.55
2018-12-08T09:48:11.201Z,998.63
2018-12-08T09:49:11.184Z,998.63
2018-12-08T09:50:11.127Z,998.54
2018-12-08T09:51:11.098Z,998.58
2018-12-08T09:52:11.065Z,998.52
2018-12-08T09:53:11.040Z,998.61
2018-12-08T09:54:11.028Z,998.57
2018-12-08T09:55:10.990Z,998.62
2018-12-08T09:56:11.004Z,998.58
2018-12-08T09:57:10.931Z,998.56
2018-12-08T09:58:10.892Z,998.54
2018-12-08T09:59:10.883Z,998.49
2018-12-08T10:00:10.826Z,998.43
2018-12-08T10:01:10.791Z,998.46
2018-12-08T10:02:10.766Z,998.42
2018-12-08T10:03:10.733Z,998.37
2018-12-08T10:04:10.705Z,998.35
2018-12-08T10:05:10.668Z,998.34
2018-12-08T10:06:10.640Z,998.31
2018-12-08T10:07:10.601Z,998.31
2018-12-08T10:08:10.558Z,998.26
2018-12-08T10:09:10.547Z,998.25
2018-12-08T10:10:10.514Z,998.23
2018-12-08T10:11:10.473Z,998.25
2018-12-08T10:12:10.435Z,998.33
2018-12-08T10:13:10.408Z,998.21
2018-12-08T10:14:10.385Z,998.32
2018-12-08T10:15:10.331Z,998.27
2018-12-08T10:16:10.290Z,998.22
2018-12-08T10:17:10.261Z,998.19
2018-12-08T10:18:10.235Z,998.23
2018-12-08T10:19:10.214Z,998.24
2018-12-08T10:20:10.158Z,998.18
2018-12-08T10:21:17.154Z,998.22
2018-12-08T10:22:10.090Z,998.13
2018-12-08T10:23:10.052Z,998.27
2018-12-08T10:24:10.048Z,998.19
2018-12-08T10:25:09.997Z,998.16
2018-12-08T10:26:09.960Z,998.20
2018-12-08T10:27:09.926Z,998.17
2018-12-08T10:28:09.908Z,998.16
2018-12-08T10:29:09.903Z,998.02
2018-12-08T10:30:09.890Z,998.09
2018-12-08T10:31:09.853Z,998.08
2018-12-08T10:32:09.826Z,998.04
2018-12-08T10:33:09.779Z,998.11
2018-12-08T10:34:09.735Z,998.05
2018-12-08T10:35:09.715Z,998.04
2018-12-08T10:36:09.673Z,997.94
2018-12-08T10:37:09.652Z,998.00
2018-12-08T10:38:09.614Z,997.90
2018-12-08T10:39:09.588Z,997.87
2018-12-08T10:40:09.571Z,997.89
2018-12-08T10:41:09.520Z,997.93
2018-12-08T10:42:09.487Z,997.82
2018-12-08T10:43:09.456Z,997.86
2018-12-08T10:44:09.420Z,997.83
2018-12-08T10:45:09.413Z,997.76
2018-12-08T10:46:09.377Z,997.81
2018-12-08T10:47:09.353Z,997.85
2018-12-08T10:48:09.316Z,997.85
2018-12-08T10:49:09.285Z,997.82
2018-12-08T10:50:09.261Z,997.82
2018-12-08T10:51:09.221Z,997.71
2018-12-08T10:52:09.178Z,997.71
2018-12-08T10:53:09.145Z,997.70
2018-12-08T10:54:09.110Z,997.72
2018-12-08T10:55:09.098Z,997.73
2018-12-08T10:56:09.047Z,997.65
2018-12-08T10:57:09.018Z,997.67
2018-12-08T10:58:08.992Z,997.65
2018-12-08T10:59:08.964Z,997.61
2018-12-08T11:00:08.928Z,997.64
2018-12-08T11:01:08.915Z,997.64
2018-12-08T11:02:08.904Z,997.56
2018-12-08T11:03:08.847Z,997.58
2018-12-08T11:04:08.845Z,997.60
2018-12-08T11:05:08.800Z,997.61
2018-12-08T11:06:08.793Z,997.59
2018-12-08T11:07:08.737Z,997.53
2018-12-08T11:08:08.712Z,997.52
2018-12-08T11:09:08.688Z,997.47
2018-12-08T11:10:08.655Z,997.48
2018-12-08T11:11:08.637Z,997.53
2018-12-08T11:12:08.594Z,997.52
2018-12-08T11:13:08.559Z,997.54
2018-12-08T11:14:08.526Z,997.45
2018-12-08T11:15:08.496Z,997.43
2018-12-08T11:16:08.474Z,997.49
2018-12-08T11:17:08.446Z,997.45
2018-12-08T11:18:08.403Z,997.47
2018-12-08T11:19:08.365Z,997.39
2018-12-08T11:20:08.342Z,997.40
2018-12-08T11:21:08.316Z,997.34
2018-12-08T11:22:08.277Z,997.31
2018-12-08T11:23:08.236Z,997.36
2018-12-08T11:24:08.211Z,997.34
2018-12-08T11:25:08.172Z,997.30
2018-12-08T11:26:08.250Z,997.27
2018-12-08T11:27:08.111Z,997.29
2018-12-08T11:28:08.108Z,997.27
2018-12-08T11:29:08.141Z,997.24
2018-12-08T11:30:07.998Z,997.21
2018-12-08T11:31:07.973Z,997.26
2018-12-08T11:32:07.930Z,997.29
2018-12-08T11:33:07.887Z,997.10
2018-12-08T11:34:07.852Z,997.13
2018-12-08T11:35:07.821Z,997.16
2018-12-08T11:36:07.797Z,997.13
2018-12-08T11:37:07.750Z,997.14
2018-12-08T11:38:07.706Z,997.15
2018-12-08T11:39:07.676Z,997.09
2018-12-08T11:40:07.648Z,997.09
2018-12-08T11:41:07.631Z,997.07
2018-12-08T11:42:07.574Z,996.97
2018-12-08T11:43:07.546Z,997.01
2018-12-08T11:44:07.508Z,997.01
2018-12-08T11:45:07.481Z,997.01
2018-12-08T11:46:07.461Z,996.93
2018-12-08T11:47:07.429Z,997.00
2018-12-08T11:48:07.394Z,996.96
2018-12-08T11:49:07.356Z,996.90
2018-12-08T11:50:07.325Z,996.89
2018-12-08T11:51:07.311Z,996.93
2018-12-08T11:52:07.259Z,996.97
2018-12-08T11:53:07.223Z,996.94
2018-12-08T11:54:07.187Z,996.91
2018-12-08T11:55:07.153Z,996.91
2018-12-08T11:56:07.128Z,996.94
2018-12-08T11:57:07.089Z,996.93
2018-12-08T11:58:07.046Z,996.90
2018-12-08T11:59:07.011Z,996.86
2018-12-08T12:00:06.988Z,996.89
2018-12-08T12:01:06.989Z,996.81
2018-12-08T12:02:06.949Z,996.84
2018-12-08T12:03:06.912Z,996.74
2018-12-08T12:04:06.882Z,996.83
2018-12-08T12:05:06.841Z,996.79
2018-12-08T12:06:06.807Z,996.78
2018-12-08T12:07:06.797Z,996.73
2018-12-08T12:08:06.745Z,996.75
2018-12-08T12:09:06.711Z,996.78
2018-12-08T12:10:06.684Z,996.78
2018-12-08T12:11:06.652Z,996.75
2018-12-08T12:12:06.631Z,996.85
2018-12-08T12:13:06.576Z,996.69
2018-12-08T12:14:06.546Z,996.73
2018-12-08T12:15:06.507Z,996.69
2018-12-08T12:16:06.471Z,996.64
2018-12-08T12:17:06.464Z,996.65
2018-12-08T12:18:06.430Z,996.64
2018-12-08T12:19:06.391Z,996.68
2018-12-08T12:20:06.380Z,996.76
2018-12-08T12:21:06.339Z,996.67
2018-12-08T12:22:06.316Z,996.68
2018-12-08T12:23:06.266Z,996.62
2018-12-08T12:24:06.225Z,996.71
2018-12-08T12:25:06.189Z,996.66
2018-12-08T12:26:06.153Z,996.77
2018-12-08T12:27:06.154Z,996.62
2018-12-08T12:28:06.078Z,996.61